createdAt,value
2014-08-10T00:04:21.310Z,24.4
2014-08-10T00:11:21.871Z,24.4
2014-08-10T00:18:22.431Z,24.4
2014-08-10T00:25:22.976Z,24.4
2014-08-10T00:32:23.536Z,24.4
2014-08-10T00:39:24.080Z,24.4
2014-08-10T00:47:24.690Z,24.4
2014-08-10T00:54:25.250Z,24.4
2014-08-10T01:03:25.892Z,24.4
2014-08-10T01:10:26.453Z,24.4
2014-08-10T01:18:27.063Z,24.4
2014-08-10T01:26:27.671Z,24.3
2014-08-10T01:35:28.345Z,24.3
2014-08-10T01:43:28.922Z,24.3
2014-08-10T01:50:29.483Z,24.3
2014-08-10T01:57:30.028Z,24.3
2014-08-10T02:04:30.604Z,24.3
2014-08-10T02:14:31.294Z,24.3
2014-08-10T02:22:31.904Z,24.3
2014-08-10T02:29:32.449Z,24.3
2014-08-10T02:38:33.105Z,24.3
2014-08-10T06:11:00.559Z,23.9
2014-08-10T06:19:01.152Z,23.9
2014-08-10T06:28:01.811Z,23.8
2014-08-10T06:35:02.355Z,23.7
2014-08-10T06:41:02.852Z,23.7
2014-08-10T06:51:03.558Z,23.8
2014-08-10T07:00:04.185Z,23.5
2014-08-10T07:06:04.681Z,23.3
2014-08-10T07:12:05.161Z,23.2
2014-08-10T07:19:05.690Z,23.3
2014-08-10T07:28:06.332Z,23.4
2014-08-10T07:36:06.926Z,23.5
2014-08-10T07:44:07.518Z,23.5
2014-08-10T07:52:08.128Z,23.5
2014-08-10T08:02:08.819Z,23.6
2014-08-10T08:10:09.430Z,23.6
2014-08-10T08:18:10.022Z,23.6
2014-08-10T08:27:10.681Z,23.7
2014-08-10T08:37:11.403Z,23.6
2014-08-10T08:45:11.996Z,23.7
2014-08-10T08:54:12.654Z,23.6
2014-08-10T09:03:13.296Z,23.9
2014-08-10T09:12:13.938Z,23.9
2014-08-10T09:19:14.485Z,23.9
2014-08-10T09:27:15.077Z,24
2014-08-10T09:34:15.621Z,24
2014-08-10T09:42:16.215Z,24.1
2014-08-10T09:50:16.808Z,24.1
2014-08-10T09:59:17.452Z,24.1
2014-08-10T10:08:18.092Z,24.1
2014-08-10T10:16:18.703Z,24.1
2014-08-10T10:26:19.409Z,24.1
2014-08-10T10:36:20.132Z,24.2
2014-08-10T10:45:20.774Z,23.9
2014-08-10T11:03:22.074Z,24.1
2014-08-10T11:10:22.620Z,24.2
2014-08-10T11:21:41.140Z,24.2
2014-08-10T11:31:41.848Z,24.3
2014-08-10T11:38:42.408Z,24.3
2014-08-10T11:45:42.952Z,24.4
2014-08-10T11:52:43.513Z,24.5
2014-08-10T12:19:15.220Z,24.4
2014-08-10T12:27:15.829Z,24.5
2014-08-10T12:35:16.438Z,24.5
2014-08-10T12:49:16.435Z,24.7
2014-08-10T12:57:17.042Z,24.6
2014-08-10T13:05:17.652Z,24.7
2014-08-10T13:13:18.261Z,24.7
2014-08-10T13:21:18.870Z,24.7
2014-08-10T13:29:19.479Z,24.7
2014-08-10T13:35:19.991Z,24.7
2014-08-10T13:43:20.599Z,24.8
2014-08-10T13:50:21.160Z,24.8
2014-08-10T13:59:21.820Z,24.8
2014-08-10T14:07:22.443Z,24.7
2014-08-10T14:17:23.166Z,24.7
2014-08-10T14:24:23.741Z,24.8
2014-08-10T14:32:24.336Z,24.7
2014-08-10T14:41:25.124Z,24.7
2014-08-10T14:51:25.980Z,24.7
2014-08-10T14:58:26.559Z,24.8
2014-08-10T15:05:27.138Z,24.7
2014-08-10T15:12:27.668Z,24.7
2014-08-10T15:26:11.852Z,24.7
2014-08-10T15:34:12.460Z,24.8
2014-08-10T15:40:12.971Z,24.8
2014-08-10T15:48:13.580Z,24.7
2014-08-10T15:57:14.240Z,24.8
2014-08-10T16:05:14.848Z,24.7
2014-08-10T16:14:15.537Z,24.8
2014-08-10T16:22:16.131Z,24.7
2014-08-10T16:30:16.740Z,24.8
2014-08-10T16:38:17.348Z,24.8
2014-08-10T16:47:18.022Z,24.8
2014-08-10T16:55:18.632Z,24.8
2014-08-10T17:04:19.290Z,24.7
2014-08-10T17:12:19.899Z,24.6
2014-08-10T17:19:20.459Z,24.7
2014-08-10T17:26:21.019Z,24.8
2014-08-10T17:34:21.629Z,24.7
2014-08-10T17:42:22.238Z,24.7
2014-08-10T17:49:22.799Z,24.8
2014-08-10T17:58:23.456Z,24.9
2014-08-10T18:06:24.065Z,24.8
2014-08-10T18:13:24.626Z,24.9
2014-08-10T18:20:25.186Z,24.8
2014-08-10T18:27:25.746Z,24.8
2014-08-10T18:34:26.290Z,24.8
2014-08-10T18:43:26.965Z,24.7
2014-08-10T18:50:27.524Z,24.7
2014-08-10T18:57:28.069Z,24.7
2014-08-10T19:07:28.791Z,24.7
2014-08-10T19:16:29.450Z,24.7
2014-08-10T19:25:30.108Z,24.7
2014-08-10T19:34:30.765Z,24.7
2014-08-10T19:42:31.374Z,24.7
2014-08-10T19:49:31.935Z,24.7
2014-08-10T19:58:32.592Z,24.8
2014-08-10T20:07:33.249Z,24.8
2014-08-10T20:16:33.924Z,24.9
2014-08-10T20:24:34.533Z,24.8
2014-08-10T20:34:35.240Z,24.8
2014-08-10T20:44:35.963Z,24.9
2014-08-10T20:53:36.620Z,24.9
2014-08-10T21:03:37.358Z,24.9
2014-08-10T21:13:38.080Z,25
2014-08-10T21:21:38.690Z,25.1
2014-08-10T21:28:39.234Z,25.1
2014-08-10T21:38:39.956Z,25.1
2014-08-10T21:46:40.566Z,25.1
2014-08-10T21:52:41.061Z,25
2014-08-10T21:59:41.622Z,25
2014-08-10T22:07:42.215Z,25
2014-08-10T22:14:42.792Z,24.9
2014-08-10T22:22:43.385Z,24.9
2014-08-10T22:31:44.044Z,24.8
2014-08-10T22:39:44.652Z,24.8
2014-08-10T22:47:45.261Z,24.8
2014-08-10T22:55:45.870Z,24.7
2014-08-10T23:03:46.465Z,24.6
2014-08-10T23:11:47.073Z,24.7
2014-08-10T23:18:47.633Z,24.6
2014-08-10T23:26:48.242Z,24.6
2014-08-10T23:35:48.900Z,24.6
2014-08-10T23:42:49.461Z,24.6
2014-08-10T23:51:50.384Z,24.6
2014-08-10T23:59:51.039Z,24.6
